Time;durP1;ratioP1;P1;durP2;ratioP2;P2;SDS_P1;SDS_P2;PMS_P1;PMS_P2;Temp;Humidity;BMP_temperature;BMP_pressure;BME280_temperature;BME280_humidity;BME280_pressure;Samples;Min_cycle;Max_cycle;Signal;HPM_P1;HPM_P2
2023/01/19 00:00:35;;;;;;;14.95;8.68;;;;;;;;;;5043889;28;20099;-83
2023/01/19 00:03:02;;;;;;;14.35;8.18;;;;;;;;;;5030380;28;20030;-84
2023/01/19 00:05:27;;;;;;;13.75;8.10;;;;;;;;;;5030071;28;20033;-84
2023/01/19 00:07:53;;;;;;;11.57;7.85;;;;;;;;;;5031301;28;20029;-84
2023/01/19 00:10:18;;;;;;;14.10;8.10;;;;;;;;;;5031680;28;20180;-84
2023/01/19 00:12:44;;;;;;;16.60;8.40;;;;;;;;;;5026315;28;20045;-83
2023/01/19 00:15:09;;;;;;;13.57;7.05;;;;;;;;;;5025760;28;20042;-83
2023/01/19 00:17:35;;;;;;;15.88;8.35;;;;;;;;;;5025271;28;20064;-84
2023/01/19 00:20:00;;;;;;;14.40;8.10;;;;;;;;;;5027272;28;20079;-84
2023/01/19 00:22:26;;;;;;;16.45;9.13;;;;;;;;;;5031430;28;20108;-83
2023/01/19 00:24:51;;;;;;;14.10;8.48;;;;;;;;;;5029679;28;20045;-84
2023/01/19 00:27:17;;;;;;;17.95;8.90;;;;;;;;;;5013781;28;20025;-84
2023/01/19 00:29:42;;;;;;;15.82;8.32;;;;;;;;;;5029387;28;20481;-84
2023/01/19 00:32:08;;;;;;;16.20;8.40;;;;;;;;;;5030139;28;20112;-84
2023/01/19 00:34:38;;;;;;;13.43;8.05;;;;;;;;;;5029579;28;20515;-84
2023/01/19 00:37:04;;;;;;;13.77;7.97;;;;;;;;;;5030118;28;20041;-84
2023/01/19 00:39:30;;;;;;;14.30;7.95;;;;;;;;;;5025779;28;20497;-84
2023/01/19 00:44:39;;;;;;;13.55;8.40;;;;;;;;;;5028856;28;20385;-84
2023/01/19 00:47:05;;;;;;;15.50;8.20;;;;;;;;;;5030886;28;20045;-84
2023/01/19 00:49:30;;;;;;;16.10;9.40;;;;;;;;;;5043014;28;20029;-84
2023/01/19 00:51:56;;;;;;;16.50;8.40;;;;;;;;;;5039660;28;20033;-83
2023/01/19 00:54:21;;;;;;;13.93;7.85;;;;;;;;;;5034745;28;20629;-84
2023/01/19 00:56:47;;;;;;;16.80;8.95;;;;;;;;;;5034502;28;20399;-84
2023/01/19 00:59:12;;;;;;;14.27;8.15;;;;;;;;;;5034233;28;20041;-84
2023/01/19 01:01:38;;;;;;;15.10;8.40;;;;;;;;;;5032996;28;20080;-84
2023/01/19 01:04:03;;;;;;;13.50;8.38;;;;;;;;;;5032984;28;20033;-84
2023/01/19 01:06:29;;;;;;;15.07;8.32;;;;;;;;;;5033964;28;20108;-84
2023/01/19 01:08:54;;;;;;;15.43;8.55;;;;;;;;;;5034244;28;20427;-84
2023/01/19 01:11:19;;;;;;;11.38;7.30;;;;;;;;;;5033966;28;20030;-83
2023/01/19 01:13:45;;;;;;;13.10;7.88;;;;;;;;;;5034021;28;20083;-83
2023/01/19 01:16:10;;;;;;;11.77;7.40;;;;;;;;;;5033138;28;20087;-85
2023/01/19 01:18:36;;;;;;;12.40;7.20;;;;;;;;;;5029331;28;20037;-84
2023/01/19 01:21:02;;;;;;;11.52;7.10;;;;;;;;;;5031574;28;20033;-84
2023/01/19 01:23:27;;;;;;;;;;;;;;;;;;5034789;28;20083;-84
2023/01/19 01:25:53;;;;;;;12.20;7.45;;;;;;;;;;5033777;28;19908;-84
2023/01/19 01:28:18;;;;;;;12.82;8.20;;;;;;;;;;5034138;28;20037;-84
2023/01/19 01:30:44;;;;;;;13.27;7.80;;;;;;;;;;5033360;28;20400;-84
2023/01/19 01:33:10;;;;;;;12.73;7.50;;;;;;;;;;5032657;28;20025;-84
2023/01/19 01:35:36;;;;;;;11.88;7.72;;;;;;;;;;5018278;28;20030;-84
2023/01/19 01:38:01;;;;;;;16.35;7.32;;;;;;;;;;5026075;28;20049;-84
2023/01/19 01:40:27;;;;;;;10.10;6.35;;;;;;;;;;5016075;28;20038;-84
2023/01/19 01:42:53;;;;;;;11.55;7.00;;;;;;;;;;5013160;28;20034;-84
2023/01/19 01:45:24;;;;;;;14.45;7.78;;;;;;;;;;5030319;28;20049;-84
2023/01/19 01:47:49;;;;;;;11.23;7.63;;;;;;;;;;5021518;28;20033;-84
2023/01/19 01:50:16;;;;;;;13.98;7.88;;;;;;;;;;5016108;28;20495;-84
2023/01/19 01:52:46;;;;;;;13.10;7.60;;;;;;;;;;5032768;28;20033;-84
2023/01/19 01:55:11;;;;;;;10.50;6.80;;;;;;;;;;5032415;28;20040;-84
2023/01/19 01:57:38;;;;;;;11.95;6.72;;;;;;;;;;5034002;28;20038;-84
2023/01/19 02:00:04;;;;;;;11.60;7.38;;;;;;;;;;5027404;28;20494;-84
2023/01/19 02:05:17;;;;;;;17.02;8.15;;;;;;;;;;5033076;28;20052;-84
2023/01/19 02:13:29;;;;;;;13.10;7.40;;;;;;;;;;5031837;28;20060;-84
2023/01/19 02:15:56;;;;;;;11.90;7.25;;;;;;;;;;5032972;28;20504;-84
2023/01/19 02:18:23;;;;;;;12.02;7.47;;;;;;;;;;5032608;28;20041;-84
2023/01/19 02:20:52;;;;;;;10.02;6.80;;;;;;;;;;5032826;28;20850;-85
2023/01/19 02:23:19;;;;;;;12.32;7.20;;;;;;;;;;5031721;28;20045;-84
2023/01/19 02:25:45;;;;;;;12.05;7.15;;;;;;;;;;5031828;28;20025;-85
2023/01/19 02:28:10;;;;;;;10.48;6.80;;;;;;;;;;5032005;28;20540;-84
2023/01/19 02:30:36;;;;;;;10.90;7.53;;;;;;;;;;5033506;28;20025;-85
2023/01/19 02:33:01;;;;;;;11.25;7.20;;;;;;;;;;5041988;28;20033;-85
2023/01/19 02:35:26;;;;;;;12.40;7.35;;;;;;;;;;5032318;28;20057;-85
2023/01/19 02:37:52;;;;;;;10.35;7.00;;;;;;;;;;5031799;28;20128;-86
2023/01/19 02:40:20;;;;;;;13.07;7.60;;;;;;;;;;5033325;28;20377;-85
2023/01/19 02:42:49;;;;;;;10.73;6.50;;;;;;;;;;5032806;28;20432;-84
2023/01/19 02:45:15;;;;;;;9.77;6.95;;;;;;;;;;5015205;28;20034;-84
2023/01/19 02:47:48;;;;;;;12.00;7.18;;;;;;;;;;5032536;28;20457;-84
2023/01/19 02:50:32;;;;;;;11.02;7.30;;;;;;;;;;5030839;28;20042;-85
2023/01/19 02:52:59;;;;;;;11.68;6.95;;;;;;;;;;5022842;28;20040;-86
2023/01/19 02:55:26;;;;;;;10.68;6.72;;;;;;;;;;5031150;28;20087;-85
2023/01/19 02:57:52;;;;;;;11.20;7.18;;;;;;;;;;5031480;28;20077;-85
2023/01/19 03:00:20;;;;;;;13.13;6.97;;;;;;;;;;5032295;28;20056;-85
2023/01/19 03:02:46;;;;;;;13.27;7.80;;;;;;;;;;5031779;28;20060;-85
2023/01/19 03:05:32;;;;;;;12.27;7.93;;;;;;;;;;5031852;28;20033;-85
2023/01/19 03:08:05;;;;;;;13.00;8.23;;;;;;;;;;5037896;28;20049;-85
2023/01/19 03:10:34;;;;;;;12.68;7.50;;;;;;;;;;5029653;28;20025;-85
2023/01/19 03:13:01;;;;;;;12.98;7.93;;;;;;;;;;5039422;28;20052;-85
2023/01/19 03:15:29;;;;;;;11.88;7.45;;;;;;;;;;5047914;28;20048;-85
2023/01/19 03:17:55;;;;;;;13.13;8.48;;;;;;;;;;5033260;28;20083;-86
2023/01/19 03:20:22;;;;;;;12.38;7.95;;;;;;;;;;5031387;28;20041;-85
2023/01/19 03:22:48;;;;;;;14.32;8.40;;;;;;;;;;5033230;28;20037;-85
2023/01/19 03:25:14;;;;;;;14.32;7.97;;;;;;;;;;5015305;28;20095;-84
2023/01/19 03:27:40;;;;;;;13.32;8.15;;;;;;;;;;5031326;28;20029;-84
2023/01/19 03:30:05;;;;;;;;;;;;;;;;;;5031816;28;20041;-85
2023/01/19 03:32:31;;;;;;;11.32;7.10;;;;;;;;;;5031955;28;19941;-85
2023/01/19 03:34:56;;;;;;;;;;;;;;;;;;5031210;28;20081;-85
2023/01/19 03:37:22;;;;;;;12.73;7.40;;;;;;;;;;5031971;28;19951;-84
2023/01/19 03:39:48;;;;;;;14.68;7.72;;;;;;;;;;5014763;28;20095;-85
2023/01/19 03:42:14;;;;;;;11.90;7.75;;;;;;;;;;5030561;28;20121;-85
2023/01/19 03:44:40;;;;;;;12.50;7.63;;;;;;;;;;5030832;28;20095;-85
2023/01/19 03:47:05;;;;;;;13.75;8.27;;;;;;;;;;5029993;28;20044;-85
2023/01/19 03:49:31;;;;;;;13.57;7.68;;;;;;;;;;5029951;28;20056;-86
2023/01/19 03:51:57;;;;;;;14.50;8.82;;;;;;;;;;5030673;28;20487;-85
2023/01/19 03:54:23;;;;;;;15.65;8.50;;;;;;;;;;5031527;28;20183;-85
2023/01/19 03:56:48;;;;;;;13.27;7.90;;;;;;;;;;4997720;28;20108;-84
2023/01/19 03:59:16;;;;;;;15.07;8.05;;;;;;;;;;5031005;28;20041;-84
2023/01/19 04:01:42;;;;;;;13.25;8.15;;;;;;;;;;5013950;28;20033;-84
2023/01/19 04:04:07;;;;;;;17.17;8.90;;;;;;;;;;5014408;28;20052;-85
2023/01/19 04:06:32;;;;;;;13.40;7.82;;;;;;;;;;5012453;28;20115;-85
2023/01/19 04:08:58;;;;;;;14.75;8.23;;;;;;;;;;5032036;28;20112;-85
2023/01/19 04:11:23;;;;;;;14.05;8.30;;;;;;;;;;5031660;28;20404;-86
2023/01/19 04:13:49;;;;;;;13.93;7.93;;;;;;;;;;5023359;28;20053;-84
2023/01/19 04:16:18;;;;;;;12.25;8.43;;;;;;;;;;5040436;28;20041;-84
2023/01/19 04:18:44;;;;;;;12.15;7.97;;;;;;;;;;5031630;28;20125;-84
2023/01/19 04:21:09;;;;;;;13.15;8.32;;;;;;;;;;5038566;28;20100;-86
2023/01/19 04:23:35;;;;;;;13.55;8.40;;;;;;;;;;5014235;28;20045;-86
2023/01/19 04:26:01;;;;;;;13.45;8.60;;;;;;;;;;5040789;28;20037;-85
2023/01/19 04:28:27;;;;;;;13.40;8.60;;;;;;;;;;5037515;28;20037;-85
2023/01/19 04:30:53;;;;;;;16.15;8.98;;;;;;;;;;5020400;28;20536;-83
2023/01/19 04:33:18;;;;;;;;;;;;;;;;;;5040620;28;20099;-85
2023/01/19 04:35:44;;;;;;;14.35;8.82;;;;;;;;;;5034029;28;19909;-85
2023/01/19 04:38:10;;;;;;;13.80;8.55;;;;;;;;;;5033822;28;20403;-84
2023/01/19 04:40:35;;;;;;;13.57;8.45;;;;;;;;;;5017261;28;20117;-84
2023/01/19 04:43:01;;;;;;;14.68;9.35;;;;;;;;;;5034523;28;20797;-85
2023/01/19 04:45:26;;;;;;;15.75;10.35;;;;;;;;;;5051310;28;20451;-85
2023/01/19 04:47:52;;;;;;;15.18;9.40;;;;;;;;;;5035578;28;20037;-85
2023/01/19 04:50:17;;;;;;;13.90;9.10;;;;;;;;;;5035018;28;20108;-85
2023/01/19 04:52:43;;;;;;;16.25;9.90;;;;;;;;;;5023726;28;20037;-86
2023/01/19 04:55:09;;;;;;;17.25;11.43;;;;;;;;;;5035102;28;20112;-86
2023/01/19 04:57:34;;;;;;;16.90;10.70;;;;;;;;;;5035270;28;20565;-84
2023/01/19 05:00:00;;;;;;;18.35;10.85;;;;;;;;;;5033853;28;20508;-87
2023/01/19 05:02:25;;;;;;;15.85;10.38;;;;;;;;;;5034722;28;20382;-84
2023/01/19 05:04:50;;;;;;;21.45;12.18;;;;;;;;;;5036655;28;20052;-86
2023/01/19 05:07:16;;;;;;;15.70;10.68;;;;;;;;;;5033204;28;20029;-87
2023/01/19 05:09:41;;;;;;;18.27;10.77;;;;;;;;;;5029517;28;20060;-84
2023/01/19 05:12:07;;;;;;;16.60;11.27;;;;;;;;;;5035070;28;20053;-85
2023/01/19 05:14:32;;;;;;;22.20;12.82;;;;;;;;;;5033891;28;20506;-86
2023/01/19 05:16:59;;;;;;;18.65;10.55;;;;;;;;;;5050172;28;20172;-84
2023/01/19 05:19:24;;;;;;;15.88;10.70;;;;;;;;;;5035011;28;20443;-85
2023/01/19 05:21:50;;;;;;;16.98;10.18;;;;;;;;;;5035328;28;20033;-85
2023/01/19 05:24:16;;;;;;;16.40;9.82;;;;;;;;;;5034353;28;20025;-84
2023/01/19 05:26:42;;;;;;;17.58;11.07;;;;;;;;;;5033549;28;20211;-85
2023/01/19 05:29:08;;;;;;;15.77;10.20;;;;;;;;;;5038200;28;20025;-86
2023/01/19 05:31:34;;;;;;;17.38;11.18;;;;;;;;;;5035060;28;20041;-86
2023/01/19 05:34:00;;;;;;;15.88;10.77;;;;;;;;;;5032455;28;20492;-82
2023/01/19 05:36:26;;;;;;;20.42;12.82;;;;;;;;;;5033267;28;20541;-86
2023/01/19 05:38:51;;;;;;;23.33;12.50;;;;;;;;;;5048868;28;20044;-84
2023/01/19 05:41:17;;;;;;;17.65;11.80;;;;;;;;;;5028632;28;20032;-84
2023/01/19 05:43:42;;;;;;;20.65;12.85;;;;;;;;;;5035333;28;20021;-83
2023/01/19 05:46:11;;;;;;;19.95;12.82;;;;;;;;;;5021318;28;20044;-84
2023/01/19 05:48:37;;;;;;;22.08;12.50;;;;;;;;;;5030867;28;20037;-83
2023/01/19 05:51:03;;;;;;;20.30;12.63;;;;;;;;;;5033525;28;20044;-83
2023/01/19 05:53:29;;;;;;;21.52;13.35;;;;;;;;;;5029741;28;20021;-83
2023/01/19 05:55:58;;;;;;;21.30;13.82;;;;;;;;;;5041065;28;20033;-84
2023/01/19 05:58:24;;;;;;;21.23;13.77;;;;;;;;;;5031921;28;20040;-84
2023/01/19 06:00:49;;;;;;;24.02;14.25;;;;;;;;;;5042082;28;20041;-83
2023/01/19 06:03:14;;;;;;;21.60;14.18;;;;;;;;;;5032561;28;20029;-83
2023/01/19 06:05:40;;;;;;;18.60;11.75;;;;;;;;;;5032906;28;20041;-83
2023/01/19 06:08:05;;;;;;;24.23;14.48;;;;;;;;;;5032777;28;20575;-82
2023/01/19 06:10:31;;;;;;;22.52;14.68;;;;;;;;;;5041393;28;20041;-83
2023/01/19 06:12:56;;;;;;;20.13;13.10;;;;;;;;;;5040503;28;20056;-83
2023/01/19 06:15:21;;;;;;;22.15;13.15;;;;;;;;;;5051682;28;20418;-83
2023/01/19 06:17:47;;;;;;;19.02;11.88;;;;;;;;;;5034373;28;20037;-83
2023/01/19 06:20:13;;;;;;;25.58;13.77;;;;;;;;;;5031905;28;20412;-83
2023/01/19 06:22:38;;;;;;;22.60;13.48;;;;;;;;;;5031657;28;20041;-84
2023/01/19 06:25:04;;;;;;;23.27;14.07;;;;;;;;;;5033821;28;20029;-85
2023/01/19 06:27:29;;;;;;;21.95;13.35;;;;;;;;;;5039643;28;20536;-82
2023/01/19 06:29:54;;;;;;;23.15;14.05;;;;;;;;;;5037293;28;20030;-83
2023/01/19 06:32:20;;;;;;;23.05;15.25;;;;;;;;;;5032549;28;20032;-82
2023/01/19 06:34:46;;;;;;;25.65;14.45;;;;;;;;;;5044444;28;20026;-83
2023/01/19 06:37:11;;;;;;;24.05;15.20;;;;;;;;;;5030960;28;20615;-84
2023/01/19 06:39:39;;;;;;;26.10;14.35;;;;;;;;;;5032527;28;20041;-83
2023/01/19 06:42:05;;;;;;;25.20;15.13;;;;;;;;;;5032266;28;20037;-83
2023/01/19 06:44:31;;;;;;;;;;;;;;;;;;5036613;28;20043;-85
2023/01/19 06:46:56;;;;;;;24.23;14.07;;;;;;;;;;5035006;28;20299;-83
2023/01/19 06:49:22;;;;;;;27.55;14.73;;;;;;;;;;5032869;28;20389;-83
2023/01/19 06:51:47;;;;;;;25.23;14.18;;;;;;;;;;5031392;28;20083;-83
2023/01/19 06:54:15;;;;;;;22.88;13.88;;;;;;;;;;5053507;28;20057;-84
2023/01/19 06:56:41;;;;;;;26.38;15.30;;;;;;;;;;5038436;28;20489;-83
2023/01/19 06:59:07;;;;;;;23.73;14.38;;;;;;;;;;5044640;28;20025;-84
2023/01/19 07:01:32;;;;;;;24.20;13.05;;;;;;;;;;5044338;28;20617;-84
2023/01/19 07:03:58;;;;;;;26.27;15.82;;;;;;;;;;5032275;28;20040;-85
2023/01/19 07:06:23;;;;;;;30.45;15.27;;;;;;;;;;5031661;28;20041;-83
2023/01/19 07:08:49;;;;;;;29.58;15.57;;;;;;;;;;5031711;28;20127;-84
2023/01/19 07:11:14;;;;;;;30.77;16.38;;;;;;;;;;5031573;28;20036;-85
2023/01/19 07:13:40;;;;;;;34.15;17.67;;;;;;;;;;5041338;28;20509;-83
2023/01/19 07:16:09;;;;;;;32.92;16.33;;;;;;;;;;5030793;28;20033;-84
2023/01/19 07:18:35;;;;;;;30.15;15.23;;;;;;;;;;5036225;28;20128;-84
2023/01/19 07:21:01;;;;;;;33.25;17.05;;;;;;;;;;5035753;28;20120;-84
2023/01/19 07:23:29;;;;;;;31.45;17.15;;;;;;;;;;5030311;28;20048;-84
2023/01/19 07:25:55;;;;;;;32.83;17.58;;;;;;;;;;5031388;28;20112;-83
2023/01/19 07:28:20;;;;;;;;;;;;;;;;;;5031021;28;20045;-82
2023/01/19 07:30:49;;;;;;;33.95;17.85;;;;;;;;;;5031549;28;20076;-83
2023/01/19 07:33:14;;;;;;;38.80;18.63;;;;;;;;;;5035915;28;20032;-84
2023/01/19 07:35:44;;;;;;;31.83;17.10;;;;;;;;;;5036260;28;20396;-84
2023/01/19 07:38:10;;;;;;;34.65;16.90;;;;;;;;;;5039047;28;20097;-84
2023/01/19 07:40:35;;;;;;;34.45;18.33;;;;;;;;;;5027561;28;20587;-83
2023/01/19 07:43:01;;;;;;;33.25;18.45;;;;;;;;;;5031499;28;20124;-83
2023/01/19 07:45:26;;;;;;;35.63;18.45;;;;;;;;;;5030102;28;20052;-84
2023/01/19 07:47:52;;;;;;;36.67;19.40;;;;;;;;;;5017951;28;20037;-84
2023/01/19 07:50:20;;;;;;;37.20;18.77;;;;;;;;;;5035070;28;20037;-84
2023/01/19 07:52:46;;;;;;;35.08;18.10;;;;;;;;;;5030997;28;20040;-84
2023/01/19 07:55:11;;;;;;;35.75;17.92;;;;;;;;;;5012904;28;20029;-84
2023/01/19 07:57:37;;;;;;;34.67;18.25;;;;;;;;;;5041459;28;20045;-83
2023/01/19 08:00:07;;;;;;;33.55;18.73;;;;;;;;;;5031158;28;20040;-81
2023/01/19 08:02:37;;;;;;;41.35;19.55;;;;;;;;;;5019513;28;20041;-83
2023/01/19 08:05:03;;;;;;;43.05;19.80;;;;;;;;;;5030621;28;20512;-82
2023/01/19 08:07:28;;;;;;;37.47;18.60;;;;;;;;;;5030991;28;20488;-84
2023/01/19 08:09:54;;;;;;;37.80;18.63;;;;;;;;;;5030925;28;20025;-84
2023/01/19 08:12:19;;;;;;;39.90;19.63;;;;;;;;;;5038209;28;20465;-83
2023/01/19 08:14:45;;;;;;;41.40;19.50;;;;;;;;;;5035153;28;20048;-83
2023/01/19 08:17:13;;;;;;;36.80;19.15;;;;;;;;;;5031141;28;20033;-84
2023/01/19 08:19:39;;;;;;;36.70;19.65;;;;;;;;;;5030768;28;20155;-83
2023/01/19 08:22:04;;;;;;;36.60;19.17;;;;;;;;;;5020411;28;20428;-84
2023/01/19 08:24:30;;;;;;;40.45;19.23;;;;;;;;;;5034755;28;20083;-83
2023/01/19 08:26:59;;;;;;;42.55;19.85;;;;;;;;;;5030923;28;20052;-84
2023/01/19 08:29:24;;;;;;;43.15;20.55;;;;;;;;;;5013273;28;20021;-84
2023/01/19 08:31:51;;;;;;;40.67;20.08;;;;;;;;;;5029555;28;20400;-83
2023/01/19 08:34:17;;;;;;;40.28;20.40;;;;;;;;;;5022148;28;20025;-83
2023/01/19 08:36:42;;;;;;;40.17;19.73;;;;;;;;;;5008916;28;20409;-84
2023/01/19 08:39:10;;;;;;;39.45;19.70;;;;;;;;;;5012879;28;20013;-84
2023/01/19 08:41:36;;;;;;;40.15;19.98;;;;;;;;;;5029457;28;20095;-84
2023/01/19 08:44:02;;;;;;;39.28;20.25;;;;;;;;;;5037681;28;20079;-83
2023/01/19 08:46:28;;;;;;;32.30;17.85;;;;;;;;;;5037482;28;20441;-83
2023/01/19 08:48:53;;;;;;;43.45;20.58;;;;;;;;;;5039179;28;20116;-83
2023/01/19 08:51:19;;;;;;;37.88;19.67;;;;;;;;;;5038083;28;20040;-83
2023/01/19 08:53:50;;;;;;;43.03;20.33;;;;;;;;;;5033276;28;20555;-83
2023/01/19 08:56:16;;;;;;;38.47;19.98;;;;;;;;;;5046950;28;20083;-84
2023/01/19 08:58:42;;;;;;;39.60;20.77;;;;;;;;;;5033107;28;20029;-83
2023/01/19 09:01:07;;;;;;;40.53;20.42;;;;;;;;;;5012160;28;20037;-83
2023/01/19 09:03:33;;;;;;;38.33;19.48;;;;;;;;;;5028194;28;20519;-83
2023/01/19 09:05:59;;;;;;;;;;;;;;;;;;5012385;28;20037;-83
2023/01/19 09:08:24;;;;;;;38.38;19.70;;;;;;;;;;5029302;28;20365;-83
2023/01/19 09:10:50;;;;;;;44.10;22.50;;;;;;;;;;5031030;28;20033;-83
2023/01/19 09:13:15;;;;;;;39.50;20.10;;;;;;;;;;5032247;28;20408;-83
2023/01/19 09:15:42;;;;;;;43.92;21.38;;;;;;;;;;5042467;28;20611;-84
2023/01/19 09:18:12;;;;;;;43.15;20.27;;;;;;;;;;5015826;28;20029;-83
2023/01/19 09:20:43;;;;;;;46.60;22.55;;;;;;;;;;5048647;28;20047;-84
2023/01/19 09:23:09;;;;;;;47.92;23.17;;;;;;;;;;5035587;28;20064;-83
2023/01/19 09:25:36;;;;;;;42.58;21.23;;;;;;;;;;5032849;28;20461;-83
2023/01/19 09:28:01;;;;;;;45.72;23.48;;;;;;;;;;5032330;28;20561;-84
2023/01/19 09:30:26;;;;;;;47.30;23.95;;;;;;;;;;5043993;28;20029;-84
2023/01/19 09:32:52;;;;;;;53.25;24.92;;;;;;;;;;5033751;28;20037;-84
2023/01/19 09:35:18;;;;;;;57.03;24.90;;;;;;;;;;5020197;28;20030;-83
2023/01/19 09:37:46;;;;;;;46.58;23.88;;;;;;;;;;5027525;28;20041;-83
2023/01/19 09:40:12;;;;;;;46.03;22.80;;;;;;;;;;5036976;28;20068;-84
2023/01/19 09:42:42;;;;;;;52.42;24.92;;;;;;;;;;5039445;28;20851;-83
2023/01/19 09:45:09;;;;;;;50.53;23.67;;;;;;;;;;5032770;28;20041;-83
2023/01/19 09:47:35;;;;;;;52.70;23.90;;;;;;;;;;5032212;28;20503;-84
2023/01/19 09:50:02;;;;;;;51.53;24.02;;;;;;;;;;5031548;28;20112;-83
2023/01/19 09:52:28;;;;;;;50.67;24.92;;;;;;;;;;5045023;28;20072;-85
2023/01/19 09:54:54;;;;;;;56.08;26.90;;;;;;;;;;5016253;28;20116;-84
2023/01/19 09:57:20;;;;;;;55.90;26.75;;;;;;;;;;5033820;28;20038;-83
2023/01/19 09:59:48;;;;;;;54.95;26.33;;;;;;;;;;5033568;28;20117;-83
2023/01/19 10:02:34;;;;;;;57.85;27.83;;;;;;;;;;5031797;28;20416;-84
2023/01/19 10:05:01;;;;;;;51.90;25.85;;;;;;;;;;5030787;28;20500;-83
2023/01/19 10:08:02;;;;;;;55.25;25.40;;;;;;;;;;5026140;28;20535;-81
2023/01/19 10:10:28;;;;;;;49.78;25.85;;;;;;;;;;5021589;28;20049;-83
2023/01/19 10:12:58;;;;;;;45.35;24.98;;;;;;;;;;5032204;28;20118;-84
2023/01/19 10:15:39;;;;;;;51.10;26.27;;;;;;;;;;5027598;28;20485;-83
2023/01/19 10:18:08;;;;;;;52.65;26.25;;;;;;;;;;5029703;28;20037;-83
2023/01/19 10:20:38;;;;;;;47.97;24.90;;;;;;;;;;5032832;28;20088;-85
2023/01/19 10:23:04;;;;;;;49.00;25.35;;;;;;;;;;5033841;28;20068;-84
2023/01/19 10:25:30;;;;;;;48.70;24.20;;;;;;;;;;5028861;28;20064;-84
2023/01/19 10:27:56;;;;;;;42.08;23.48;;;;;;;;;;5031657;28;20044;-83
2023/01/19 10:30:22;;;;;;;46.45;24.73;;;;;;;;;;5037528;28;20072;-84
2023/01/19 10:32:48;;;;;;;;;;;;;;;;;;5034491;28;20033;-84
2023/01/19 10:35:20;;;;;;;43.30;24.02;;;;;;;;;;5033799;28;20291;-84
2023/01/19 10:37:46;;;;;;;39.58;23.48;;;;;;;;;;5035335;28;20037;-84
2023/01/19 10:40:11;;;;;;;44.08;25.20;;;;;;;;;;5031441;28;20216;-83
2023/01/19 10:42:37;;;;;;;40.88;22.45;;;;;;;;;;5032544;28;20524;-84
2023/01/19 10:45:04;;;;;;;38.53;22.77;;;;;;;;;;5031645;28;20025;-84
2023/01/19 10:47:31;;;;;;;42.08;23.80;;;;;;;;;;5028796;28;20037;-85
2023/01/19 10:49:57;;;;;;;44.17;23.27;;;;;;;;;;5008568;28;20032;-85
2023/01/19 10:52:35;;;;;;;43.75;26.05;;;;;;;;;;5033835;28;20029;-85
2023/01/19 10:55:01;;;;;;;39.97;22.83;;;;;;;;;;5038443;28;20116;-84
2023/01/19 10:57:27;;;;;;;39.28;22.77;;;;;;;;;;5032599;28;20164;-84
2023/01/19 10:59:53;;;;;;;37.63;22.00;;;;;;;;;;5014489;28;20087;-85
2023/01/19 11:02:25;;;;;;;35.53;21.33;;;;;;;;;;5031034;28;20440;-84
2023/01/19 11:04:51;;;;;;;35.72;21.35;;;;;;;;;;5031633;28;20041;-85
2023/01/19 11:07:21;;;;;;;38.08;22.38;;;;;;;;;;5029423;28;20037;-84
2023/01/19 11:09:46;;;;;;;36.95;21.70;;;;;;;;;;5031831;28;20148;-84
2023/01/19 11:12:16;;;;;;;32.15;20.35;;;;;;;;;;5027865;28;20124;-84
2023/01/19 11:14:41;;;;;;;35.50;22.23;;;;;;;;;;5040583;28;20493;-83
2023/01/19 11:17:07;;;;;;;34.08;20.80;;;;;;;;;;5040400;28;20032;-83
2023/01/19 11:19:32;;;;;;;34.90;20.85;;;;;;;;;;5014174;28;20458;-83
2023/01/19 11:22:20;;;;;;;33.25;20.67;;;;;;;;;;5030741;28;20063;-83
2023/01/19 11:24:46;;;;;;;33.30;20.70;;;;;;;;;;5030357;28;20116;-80
2023/01/19 11:27:11;;;;;;;33.97;20.27;;;;;;;;;;5014284;28;20145;-84
2023/01/19 11:29:37;;;;;;;35.45;21.35;;;;;;;;;;5011914;28;20030;-83
2023/01/19 11:32:08;;;;;;;35.30;21.02;;;;;;;;;;5030306;28;20443;-84
2023/01/19 11:34:36;;;;;;;30.00;19.30;;;;;;;;;;5030406;28;20033;-84
2023/01/19 11:37:02;;;;;;;34.35;19.55;;;;;;;;;;5030259;28;20531;-83
2023/01/19 11:39:29;;;;;;;32.80;21.10;;;;;;;;;;5048453;28;20040;-82
2023/01/19 11:41:56;;;;;;;30.55;19.70;;;;;;;;;;5030262;28;20029;-83
2023/01/19 11:44:23;;;;;;;33.22;21.25;;;;;;;;;;5038707;28;20415;-83
2023/01/19 11:46:52;;;;;;;30.30;19.90;;;;;;;;;;5036127;28;20028;-82
2023/01/19 11:49:25;;;;;;;31.52;19.50;;;;;;;;;;5023913;28;20033;-85
2023/01/19 11:52:16;;;;;;;29.45;18.52;;;;;;;;;;5031574;28;20055;-83
2023/01/19 11:54:45;;;;;;;30.38;19.58;;;;;;;;;;5006883;28;20046;-85
2023/01/19 11:57:14;;;;;;;30.08;20.08;;;;;;;;;;5030967;28;20492;-85
2023/01/19 11:59:39;;;;;;;33.85;20.33;;;;;;;;;;5023580;28;20032;-84
2023/01/19 12:02:10;;;;;;;35.15;20.95;;;;;;;;;;5031234;28;20151;-83
2023/01/19 12:04:36;;;;;;;39.45;23.13;;;;;;;;;;5039348;28;20104;-84
2023/01/19 12:07:05;;;;;;;32.45;19.88;;;;;;;;;;5030731;28;20040;-83
2023/01/19 12:09:51;;;;;;;32.50;20.20;;;;;;;;;;5030374;28;20108;-83
2023/01/19 12:12:23;;;;;;;36.53;19.90;;;;;;;;;;5021398;28;20052;-85
2023/01/19 12:14:54;;;;;;;32.53;20.67;;;;;;;;;;5031075;28;20038;-84
2023/01/19 12:17:30;;;;;;;29.67;19.27;;;;;;;;;;5035386;28;20033;-83
2023/01/19 12:19:59;;;;;;;30.48;18.35;;;;;;;;;;5018636;28;20042;-84
2023/01/19 12:22:27;;;;;;;31.65;18.85;;;;;;;;;;5033629;28;20120;-83
2023/01/19 12:25:04;;;;;;;32.03;19.05;;;;;;;;;;5029682;28;20448;-83
2023/01/19 12:27:39;;;;;;;30.15;18.42;;;;;;;;;;5012854;28;20563;-83
2023/01/19 12:30:08;;;;;;;31.15;19.35;;;;;;;;;;5030084;28;20086;-84
2023/01/19 12:32:35;;;;;;;35.92;21.02;;;;;;;;;;5028628;28;20075;-84
2023/01/19 12:35:01;;;;;;;36.28;21.02;;;;;;;;;;5029431;28;20064;-84
2023/01/19 12:37:29;;;;;;;33.42;19.98;;;;;;;;;;5028633;28;20061;-84
2023/01/19 12:40:17;;;;;;;38.38;20.02;;;;;;;;;;5030335;28;20443;-84
2023/01/19 12:42:43;;;;;;;35.30;21.08;;;;;;;;;;5028824;28;20041;-85
2023/01/19 12:45:08;;;;;;;;;;;;;;;;;;5030003;28;20397;-84
2023/01/19 12:47:34;;;;;;;38.40;21.02;;;;;;;;;;5034133;28;19917;-83
2023/01/19 12:50:05;;;;;;;36.13;19.58;;;;;;;;;;5031793;28;20577;-83
2023/01/19 12:52:34;;;;;;;39.47;20.13;;;;;;;;;;5016513;28;20076;-84
2023/01/19 12:55:06;;;;;;;38.67;21.40;;;;;;;;;;5032853;28;20067;-84
2023/01/19 12:57:31;;;;;;;37.08;20.77;;;;;;;;;;5025586;28;20041;-83
2023/01/19 13:00:01;;;;;;;37.72;21.80;;;;;;;;;;5035475;28;20036;-84
2023/01/19 13:02:26;;;;;;;38.88;22.17;;;;;;;;;;5034128;28;20079;-84
2023/01/19 13:05:11;;;;;;;36.08;20.35;;;;;;;;;;5059625;28;20063;-84
2023/01/19 13:07:55;;;;;;;38.70;22.13;;;;;;;;;;5048174;28;20041;-84
2023/01/19 13:10:39;;;;;;;39.88;22.20;;;;;;;;;;5030408;28;20029;-85
2023/01/19 13:13:15;;;;;;;41.92;23.73;;;;;;;;;;5026144;28;20063;-84
2023/01/19 13:15:41;;;;;;;37.30;21.88;;;;;;;;;;5049936;28;20377;-84
2023/01/19 13:18:06;;;;;;;;;;;;;;;;;;5049896;28;20025;-83
2023/01/19 13:20:35;;;;;;;37.72;21.67;;;;;;;;;;5034570;28;20364;-83
2023/01/19 13:23:13;;;;;;;40.65;25.02;;;;;;;;;;5034144;28;20072;-85
2023/01/19 13:25:38;;;;;;;40.33;25.20;;;;;;;;;;5049617;28;20044;-84
2023/01/19 13:28:06;;;;;;;44.38;26.17;;;;;;;;;;5016230;28;20025;-84
2023/01/19 13:30:32;;;;;;;42.03;24.42;;;;;;;;;;5031113;28;20132;-84
2023/01/19 13:33:02;;;;;;;39.78;22.08;;;;;;;;;;5024498;28;20093;-84
2023/01/19 13:35:27;;;;;;;37.10;20.77;;;;;;;;;;5023863;28;20404;-84
2023/01/19 13:37:53;;;;;;;36.78;21.08;;;;;;;;;;5038555;28;20029;-83
2023/01/19 13:40:32;;;;;;;35.47;20.20;;;;;;;;;;5034483;28;20069;-84
2023/01/19 13:42:58;;;;;;;37.47;21.15;;;;;;;;;;5034198;28;20148;-84
2023/01/19 13:45:35;;;;;;;36.95;20.08;;;;;;;;;;5028095;28;20392;-83
2023/01/19 13:48:04;;;;;;;38.20;19.90;;;;;;;;;;5033879;28;20033;-83
2023/01/19 13:50:34;;;;;;;32.97;18.95;;;;;;;;;;5028682;28;20120;-84
2023/01/19 13:53:00;;;;;;;33.47;19.25;;;;;;;;;;5049156;28;20132;-84
2023/01/19 13:55:26;;;;;;;36.58;20.27;;;;;;;;;;5044093;28;20032;-83
2023/01/19 13:57:51;;;;;;;;;;;;;;;;;;5036689;28;20408;-83
2023/01/19 14:00:18;;;;;;;37.30;20.88;;;;;;;;;;5043984;28;20023;-83
2023/01/19 14:02:50;;;;;;;40.90;21.50;;;;;;;;;;5032049;28;20045;-84
2023/01/19 14:05:21;;;;;;;39.00;21.70;;;;;;;;;;5032809;28;20076;-84
2023/01/19 14:07:47;;;;;;;43.33;20.60;;;;;;;;;;5040135;28;20037;-84
2023/01/19 14:10:13;;;;;;;34.92;20.05;;;;;;;;;;5015363;28;20036;-85
2023/01/19 14:12:39;;;;;;;40.53;21.80;;;;;;;;;;5038676;28;20064;-83
2023/01/19 14:15:10;;;;;;;45.85;24.20;;;;;;;;;;5034987;28;20029;-84
2023/01/19 14:17:35;;;;;;;40.85;23.17;;;;;;;;;;5031902;28;20037;-85
2023/01/19 14:20:01;;;;;;;45.17;23.90;;;;;;;;;;5036278;28;20028;-84
2023/01/19 14:22:42;;;;;;;42.80;23.60;;;;;;;;;;5031175;28;20076;-84
2023/01/19 14:25:40;;;;;;;45.70;25.02;;;;;;;;;;5025749;28;20037;-84
2023/01/19 14:28:08;;;;;;;;;;;;;;;;;;5016403;28;20050;-84
2023/01/19 14:30:35;;;;;;;43.97;24.23;;;;;;;;;;5026362;28;20380;-84
2023/01/19 14:33:01;;;;;;;43.92;22.88;;;;;;;;;;5038464;28;20042;-83
2023/01/19 14:35:28;;;;;;;41.13;21.88;;;;;;;;;;5021387;28;20026;-84
2023/01/19 14:37:54;;;;;;;47.72;24.50;;;;;;;;;;5015604;28;21041;-82